createdAt,value
2022-07-28T00:00:17.736Z,89.98
2022-07-28T00:01:22.521Z,89.74
2022-07-28T00:02:17.867Z,90.22
2022-07-28T00:03:17.864Z,89.83
2022-07-28T00:04:18.182Z,90.51
2022-07-28T00:05:17.738Z,89.74
2022-07-28T00:06:17.738Z,90.17
2022-07-28T00:07:20.751Z,90.07
2022-07-28T00:08:17.749Z,90.07
2022-07-28T00:09:17.742Z,89.98
2022-07-28T00:10:17.729Z,89.64
2022-07-28T00:11:17.748Z,89.64
2022-07-28T00:12:17.755Z,89.93
2022-07-28T00:13:17.746Z,90.41
2022-07-28T00:14:18.399Z,90.31
2022-07-28T00:15:17.740Z,90.12
2022-07-28T00:16:17.985Z,89.54
2022-07-28T00:17:17.757Z,90.41
2022-07-28T00:18:20.783Z,90.6
2022-07-28T00:19:17.755Z,91.28
2022-07-28T00:20:17.759Z,90.41
2022-07-28T00:21:17.753Z,90.03
2022-07-28T00:22:17.758Z,90.31
2022-07-28T00:23:17.757Z,90.12
2022-07-28T00:24:18.210Z,90.31
2022-07-28T00:25:17.771Z,90.22
2022-07-28T00:26:17.764Z,90.51
2022-07-28T00:27:19.123Z,89.74
2022-07-28T00:28:18.811Z,90.22
2022-07-28T00:29:20.637Z,90.03
2022-07-28T00:30:17.837Z,90.6
2022-07-28T00:31:18.179Z,90.22
2022-07-28T00:32:17.889Z,90.31
2022-07-28T00:33:17.782Z,89.64
2022-07-28T00:34:18.145Z,90.6
2022-07-28T00:35:17.986Z,90.03
2022-07-28T00:36:18.220Z,89.64
2022-07-28T00:37:17.791Z,89.83
2022-07-28T00:38:17.785Z,89.36
2022-07-28T00:39:17.791Z,90.51
2022-07-28T00:40:18.826Z,90.03
2022-07-28T00:41:17.788Z,90.31
2022-07-28T00:42:17.832Z,90.12
2022-07-28T00:43:17.799Z,90.31
2022-07-28T00:44:18.543Z,90.12
2022-07-28T00:45:17.794Z,90.51
2022-07-28T00:46:17.923Z,90.51
2022-07-28T00:47:17.841Z,90.51
2022-07-28T00:48:17.803Z,90.31
2022-07-28T00:49:18.019Z,89.74
2022-07-28T00:50:18.843Z,89.93
2022-07-28T00:51:20.828Z,89.83
2022-07-28T00:52:17.833Z,90.22
2022-07-28T00:53:17.824Z,89.98
2022-07-28T00:54:18.430Z,90.56
2022-07-28T00:55:17.816Z,90.46
2022-07-28T00:56:17.823Z,90.66
2022-07-28T00:57:17.843Z,90.56
2022-07-28T00:58:17.827Z,90.37
2022-07-28T00:59:17.827Z,90.51
2022-07-28T01:00:17.822Z,91.66
2022-07-28T01:01:17.911Z,91.52
2022-07-28T01:02:21.112Z,91.23
2022-07-28T01:03:17.962Z,90.37
2022-07-28T01:04:18.353Z,90.27
2022-07-28T01:05:17.835Z,90.37
2022-07-28T01:06:17.839Z,90.66
2022-07-28T01:07:17.864Z,90.75
2022-07-28T01:08:17.839Z,90.37
2022-07-28T01:09:17.842Z,91.04
2022-07-28T01:10:17.846Z,91.13
2022-07-28T01:11:17.847Z,91.13
2022-07-28T01:12:17.877Z,91.13
2022-07-28T01:13:17.915Z,91.23
2022-07-28T01:14:18.498Z,92
2022-07-28T01:15:17.854Z,91.81
2022-07-28T01:16:24.850Z,91.52
2022-07-28T01:17:17.880Z,92.1
2022-07-28T01:18:17.864Z,91.71
2022-07-28T01:19:17.864Z,91.52
2022-07-28T01:20:17.858Z,91.9
2022-07-28T01:21:17.878Z,92
2022-07-28T01:22:17.887Z,91.42
2022-07-28T01:23:17.869Z,91.52
2022-07-28T01:24:18.685Z,91.23
2022-07-28T01:25:17.860Z,92.38
2022-07-28T01:26:17.872Z,92.57
2022-07-28T01:27:17.898Z,92.96
2022-07-28T01:28:17.870Z,93.34
2022-07-28T01:29:18.063Z,93.73
2022-07-28T01:30:17.881Z,93.82
2022-07-28T01:31:18.090Z,94.01
2022-07-28T01:32:17.905Z,93.92
2022-07-28T01:33:17.886Z,93.82
2022-07-28T01:34:18.275Z,93.54
2022-07-28T01:35:17.885Z,93.68
2022-07-28T01:36:17.885Z,94.35
2022-07-28T01:37:17.925Z,94.35
2022-07-28T01:38:17.903Z,95.03
2022-07-28T01:39:17.899Z,95.12
2022-07-28T01:40:20.686Z,94.45
2022-07-28T01:41:18.002Z,95.21
2022-07-28T01:42:17.922Z,94.98
2022-07-28T01:43:17.902Z,95.12
2022-07-28T01:44:18.412Z,94.93
2022-07-28T01:45:17.904Z,94.69
2022-07-28T01:46:18.037Z,95.03
2022-07-28T01:47:17.930Z,95.07
2022-07-28T01:48:17.907Z,95.07
2022-07-28T01:49:18.005Z,94.4
2022-07-28T01:50:17.913Z,94.4
2022-07-28T01:51:17.939Z,94.98
2022-07-28T01:52:17.942Z,94.59
2022-07-28T01:53:17.920Z,93.92
2022-07-28T01:54:18.549Z,94.01
2022-07-28T01:55:17.921Z,93.73
2022-07-28T01:56:17.917Z,93.34
2022-07-28T01:57:17.947Z,93.73
2022-07-28T01:58:17.928Z,93.54
2022-07-28T01:59:17.948Z,93.92
2022-07-28T02:00:18.370Z,93.82
2022-07-28T02:01:18.072Z,93.82
2022-07-28T02:02:17.975Z,94.21
2022-07-28T02:03:17.944Z,94.21
2022-07-28T02:04:18.718Z,94.31
2022-07-28T02:05:21.988Z,94.21
2022-07-28T02:06:17.943Z,94.11
2022-07-28T02:07:17.964Z,93.63
2022-07-28T02:08:17.945Z,93.92
2022-07-28T02:09:18.023Z,94.01
2022-07-28T02:10:17.990Z,94.21
2022-07-28T02:11:17.999Z,93.92
2022-07-28T02:12:19.774Z,94.31
2022-07-28T02:13:17.971Z,94.59
2022-07-28T02:14:18.682Z,94.49
2022-07-28T02:15:18.022Z,95.07
2022-07-28T02:16:18.242Z,95.31
2022-07-28T02:17:17.993Z,94.69
2022-07-28T02:18:18.295Z,94.21
2022-07-28T02:19:17.987Z,93.39
2022-07-28T02:20:17.995Z,94.01
2022-07-28T02:21:17.989Z,94.45
2022-07-28T02:22:18.011Z,94.07
2022-07-28T02:23:19.124Z,94.69
2022-07-28T02:24:18.717Z,94.35
2022-07-28T02:25:17.983Z,94.83
2022-07-28T02:26:20.298Z,95.31
2022-07-28T02:27:18.025Z,95.45
2022-07-28T02:28:20.793Z,94.83
2022-07-28T02:29:51.572Z,94.49
2022-07-28T02:30:17.990Z,94.54
2022-07-28T02:31:18.131Z,94.93
2022-07-28T02:32:30.378Z,94.45
2022-07-28T02:33:58.321Z,94.64
2022-07-28T02:34:25.087Z,94.93
2022-07-28T02:35:18.571Z,94.83
2022-07-28T02:36:18.546Z,94.74
2022-07-28T02:37:17.996Z,95.03
2022-07-28T02:38:18.023Z,95.31
2022-07-28T02:39:17.998Z,95.31
2022-07-28T02:40:18.000Z,95.21
2022-07-28T02:41:18.001Z,95.5
2022-07-28T02:42:18.007Z,95.5
2022-07-28T02:43:18.290Z,96.08
2022-07-28T02:44:18.435Z,95.98
2022-07-28T02:45:20.845Z,96.08
2022-07-28T02:46:18.150Z,95.98
2022-07-28T02:47:18.006Z,96.27
2022-07-28T02:48:18.037Z,96.08
2022-07-28T02:49:18.363Z,95.7
2022-07-28T02:50:18.094Z,95.89
2022-07-28T02:51:18.249Z,95.79
2022-07-28T02:52:18.022Z,96.08
2022-07-28T02:53:18.772Z,95.98
2022-07-28T02:54:18.704Z,95.89
2022-07-28T02:55:18.038Z,95.98
2022-07-28T02:56:21.045Z,96.18
2022-07-28T02:57:18.029Z,97.42
2022-07-28T02:58:18.060Z,98.19
2022-07-28T02:59:18.029Z,97.04
2022-07-28T03:00:18.074Z,97.04
2022-07-28T03:01:18.197Z,97.04
2022-07-28T03:02:18.034Z,97.42
2022-07-28T03:03:18.073Z,97.33
2022-07-28T03:04:18.845Z,97.33
2022-07-28T03:05:18.198Z,97.52
2022-07-28T03:06:18.040Z,97.61
2022-07-28T03:07:19.131Z,97.33
2022-07-28T03:08:18.074Z,97.47
2022-07-28T03:09:18.048Z,97.28
2022-07-28T03:10:18.059Z,97.47
2022-07-28T03:11:18.054Z,97.66
2022-07-28T03:12:18.058Z,97.28
2022-07-28T03:13:18.085Z,97.28
2022-07-28T03:14:18.419Z,97.56
2022-07-28T03:15:18.053Z,97.76
2022-07-28T03:16:18.229Z,98.33
2022-07-28T03:17:18.267Z,97.76
2022-07-28T03:18:21.167Z,98.05
2022-07-28T03:19:18.068Z,98.14
2022-07-28T03:20:18.112Z,98.24
2022-07-28T03:21:18.068Z,98.05
2022-07-28T03:22:18.070Z,97.47
2022-07-28T03:23:18.104Z,98.33
2022-07-28T03:24:19.211Z,98.43
2022-07-28T03:25:18.086Z,97.95
2022-07-28T03:26:18.079Z,98.24
2022-07-28T03:27:18.080Z,98.24
2022-07-28T03:28:18.108Z,98.43
2022-07-28T03:29:21.214Z,97.86
2022-07-28T03:30:18.091Z,98.24
2022-07-28T03:31:18.249Z,98.24
2022-07-28T03:32:18.091Z,98.24
2022-07-28T03:33:18.121Z,98.24
2022-07-28T03:34:18.900Z,98.14
2022-07-28T03:35:18.097Z,98.05
2022-07-28T03:36:18.090Z,98.24
2022-07-28T03:37:18.100Z,98.33
2022-07-28T03:38:20.319Z,98.05
2022-07-28T03:39:18.110Z,98.24
2022-07-28T03:40:21.033Z,98.24
2022-07-28T03:41:18.100Z,98.14
2022-07-28T03:42:18.102Z,98.05
2022-07-28T03:43:18.134Z,98.33
2022-07-28T03:44:30.188Z,98.72
2022-07-28T03:45:18.137Z,99.2
2022-07-28T03:46:18.230Z,98.53
2022-07-28T03:47:18.124Z,98.53
2022-07-28T03:48:18.145Z,98.72
2022-07-28T03:49:18.297Z,98.33
2022-07-28T03:50:18.144Z,98.24
2022-07-28T03:51:18.128Z,98.43
2022-07-28T03:52:18.129Z,98.43
2022-07-28T03:53:18.151Z,98.24
2022-07-28T03:54:18.764Z,98.24
2022-07-28T03:55:18.144Z,98.24
2022-07-28T03:56:18.220Z,98.33
2022-07-28T03:57:18.158Z,98.05
2022-07-28T03:58:18.167Z,98.24
2022-07-28T03:59:18.145Z,98.53
2022-07-28T04:00:18.146Z,98.24
2022-07-28T04:01:18.326Z,98.24
2022-07-28T04:02:18.320Z,97.86
2022-07-28T04:03:43.429Z,98.05
2022-07-28T04:04:18.609Z,98.43
2022-07-28T04:05:18.156Z,98.05
2022-07-28T04:06:18.278Z,98.05
2022-07-28T04:07:20.958Z,98.28
2022-07-28T04:08:18.176Z,98.24
2022-07-28T04:09:18.162Z,98.24
2022-07-28T04:10:18.174Z,97.9
2022-07-28T04:11:18.162Z,98.33
2022-07-28T04:12:18.896Z,98.62
2022-07-28T04:13:18.189Z,98.53
2022-07-28T04:14:19.726Z,99.29
2022-07-28T04:15:18.170Z,99.29
2022-07-28T04:16:18.332Z,99.1
2022-07-28T04:17:18.172Z,98.62
2022-07-28T04:18:18.189Z,98.62
2022-07-28T04:19:18.169Z,98.53
2022-07-28T04:20:18.012Z,98.53
2022-07-28T04:21:18.181Z,98.14
2022-07-28T04:22:18.175Z,98.33
2022-07-28T04:23:18.197Z,98.72
2022-07-28T04:24:19.032Z,98.72
2022-07-28T04:25:18.200Z,99.01
2022-07-28T04:26:18.186Z,99.2
2022-07-28T04:27:18.194Z,99.2
2022-07-28T04:28:18.216Z,99.39
2022-07-28T04:29:28.522Z,99.49
2022-07-28T04:30:18.211Z,99.29
2022-07-28T04:31:18.327Z,98.24
2022-07-28T04:32:18.198Z,98.72
2022-07-28T04:33:18.220Z,98.43
2022-07-28T04:34:21.988Z,98.91
2022-07-28T04:35:20.047Z,98.62
2022-07-28T04:36:18.207Z,99.2
2022-07-28T04:37:18.204Z,98.53
2022-07-28T04:38:18.292Z,98.62
2022-07-28T04:39:21.340Z,98.72
2022-07-28T04:40:18.203Z,98.62
2022-07-28T04:41:18.208Z,98.05
2022-07-28T04:42:18.211Z,98.05
2022-07-28T04:43:18.235Z,97.66
2022-07-28T04:44:18.610Z,97.86
2022-07-28T04:45:18.224Z,98.14
2022-07-28T04:46:18.351Z,98.05
2022-07-28T04:47:18.243Z,98.24
2022-07-28T04:48:19.698Z,98.24
2022-07-28T04:49:18.352Z,98.82
2022-07-28T04:50:19.357Z,98.62
2022-07-28T04:51:18.060Z,98.43
2022-07-28T04:52:18.231Z,98.05
2022-07-28T04:53:18.253Z,98.19
2022-07-28T04:54:21.986Z,98.48
2022-07-28T04:55:18.249Z,98.19
2022-07-28T04:56:18.242Z,97.81
2022-07-28T04:57:18.253Z,97.52
2022-07-28T04:58:19.366Z,97.14
2022-07-28T04:59:19.027Z,96.75
2022-07-28T05:00:18.263Z,96.85
2022-07-28T05:01:21.196Z,96.75
2022-07-28T05:02:19.117Z,96.56
2022-07-28T05:03:18.300Z,96.47
2022-07-28T05:04:19.503Z,95.98
2022-07-28T05:05:18.407Z,96.08
2022-07-28T05:06:18.251Z,96.08
2022-07-28T05:07:18.279Z,96.8
2022-07-28T05:08:18.288Z,96.7
2022-07-28T05:09:18.254Z,96.61
2022-07-28T05:10:18.265Z,96.13
2022-07-28T05:11:18.267Z,95.55
2022-07-28T05:12:21.347Z,95.94
2022-07-28T05:13:18.313Z,95.65
2022-07-28T05:14:18.604Z,95.75
2022-07-28T05:15:18.300Z,95.55
2022-07-28T05:16:18.434Z,95.26
2022-07-28T05:17:18.315Z,95.26
2022-07-28T05:18:18.299Z,94.78
2022-07-28T05:19:18.323Z,94.69
2022-07-28T05:20:18.284Z,94.11
2022-07-28T05:21:24.739Z,94.11
2022-07-28T05:22:18.349Z,93.63
2022-07-28T05:23:21.405Z,93.73
2022-07-28T05:24:18.869Z,93.82
2022-07-28T05:25:18.300Z,94.01
2022-07-28T05:26:18.324Z,94.35
2022-07-28T05:27:18.294Z,94.69
2022-07-28T05:28:19.368Z,94.54
2022-07-28T05:29:18.314Z,94.26
2022-07-28T05:30:18.328Z,93.58
2022-07-28T05:31:18.427Z,93.77
2022-07-28T05:32:19.839Z,93.58
2022-07-28T05:33:19.463Z,93.96
2022-07-28T05:34:21.595Z,93.1
2022-07-28T05:35:18.309Z,92.96
2022-07-28T05:36:18.312Z,93.01
2022-07-28T05:37:21.136Z,92.52
2022-07-28T05:38:18.306Z,92.91
2022-07-28T05:39:18.340Z,92.62
2022-07-28T05:40:18.326Z,92.67
2022-07-28T05:41:18.327Z,92.09
2022-07-28T05:42:18.331Z,92.09
2022-07-28T05:43:18.332Z,91.9
2022-07-28T05:44:18.824Z,91.61
2022-07-28T05:45:21.822Z,91.71
2022-07-28T05:46:18.586Z,91.22
2022-07-28T05:47:18.344Z,91.61
2022-07-28T05:48:18.334Z,90.89
2022-07-28T05:49:18.579Z,91.85
2022-07-28T05:50:18.353Z,92.13
2022-07-28T05:51:18.331Z,91.27
2022-07-28T05:52:18.335Z,90.59
2022-07-28T05:53:18.337Z,90.59
2022-07-28T05:54:18.987Z,90.21
2022-07-28T05:55:18.344Z,90.41
2022-07-28T05:56:21.487Z,90.5
2022-07-28T05:57:18.352Z,90.41
2022-07-28T05:58:18.348Z,90.64
2022-07-28T05:59:18.349Z,89.68
2022-07-28T06:00:18.376Z,89.78
2022-07-28T06:01:18.532Z,89.78
2022-07-28T06:02:18.507Z,89.58
2022-07-28T06:03:18.352Z,89.29
2022-07-28T06:04:30.917Z,89.2
2022-07-28T06:05:18.357Z,89.01
2022-07-28T06:06:19.391Z,88.91
2022-07-28T06:07:18.387Z,89.15
2022-07-28T06:08:18.364Z,89.2
2022-07-28T06:09:18.374Z,88.43
2022-07-28T06:10:18.378Z,88.28
2022-07-28T06:11:24.289Z,88.47
2022-07-28T06:12:18.368Z,88.38
2022-07-28T06:13:18.390Z,88.18
2022-07-28T06:14:19.355Z,88.38
2022-07-28T06:15:18.385Z,87.65
2022-07-28T06:16:18.536Z,87.94
2022-07-28T06:17:18.386Z,86.98
2022-07-28T06:18:18.391Z,87.17
2022-07-28T06:19:18.410Z,87.74
2022-07-28T06:20:18.418Z,87.36
2022-07-28T06:21:18.448Z,86.44
2022-07-28T06:22:18.419Z,86.54
2022-07-28T06:23:18.510Z,86.44
2022-07-28T06:24:18.834Z,86
2022-07-28T06:25:18.414Z,85.91
2022-07-28T06:26:18.394Z,85.13
2022-07-28T06:27:18.402Z,85.13
2022-07-28T06:28:18.408Z,84.65
2022-07-28T06:29:18.429Z,84.59
2022-07-28T06:30:18.404Z,84.01
2022-07-28T06:31:18.659Z,83.05
2022-07-28T06:32:18.413Z,83.39
2022-07-28T06:33:19.733Z,83
2022-07-28T06:34:20.228Z,82.65
2022-07-28T06:35:18.426Z,81.59
2022-07-28T06:36:18.416Z,81.49
2022-07-28T06:37:18.423Z,81.05
2022-07-28T06:38:18.459Z,80.8
2022-07-28T06:39:18.442Z,79.93
2022-07-28T06:40:18.474Z,79.68
2022-07-28T06:41:18.450Z,78.91
2022-07-28T06:42:18.432Z,78.52
2022-07-28T06:43:18.427Z,78.36
2022-07-28T06:44:19.317Z,78.36
2022-07-28T06:45:22.912Z,78.81
2022-07-28T06:46:18.623Z,78.42
2022-07-28T06:47:18.542Z,78.52
2022-07-28T06:48:18.443Z,79.06
2022-07-28T06:49:19.334Z,78.91
2022-07-28T06:50:29.150Z,78.71
2022-07-28T06:51:18.443Z,78.17
2022-07-28T06:52:18.471Z,77.88
2022-07-28T06:53:18.464Z,77.88
2022-07-28T06:54:19.344Z,78.08
2022-07-28T06:55:18.476Z,77.5
2022-07-28T06:56:19.125Z,78.36
2022-07-28T06:57:19.216Z,78.02
2022-07-28T06:58:18.458Z,77.63
2022-07-28T06:59:19.249Z,77.5
2022-07-28T07:00:18.463Z,76.95
2022-07-28T07:01:18.677Z,76.95
2022-07-28T07:02:20.685Z,76.89
2022-07-28T07:03:18.483Z,76.6
2022-07-28T07:04:19.551Z,76.95
2022-07-28T07:05:18.468Z,77.59
2022-07-28T07:06:21.491Z,76.18
2022-07-28T07:07:19.519Z,75.79
2022-07-28T07:08:18.475Z,75.83
2022-07-28T07:09:18.509Z,75.05
2022-07-28T07:10:18.477Z,76.02
2022-07-28T07:11:18.478Z,75.05
2022-07-28T07:12:18.481Z,75.24
2022-07-28T07:13:18.484Z,75.34
2022-07-28T07:14:19.295Z,74.76
2022-07-28T07:15:18.491Z,74.66
2022-07-28T07:16:18.627Z,74.96
2022-07-28T07:17:21.329Z,74.51
2022-07-28T07:18:18.494Z,74.8
2022-07-28T07:19:18.515Z,75.13
2022-07-28T07:20:19.677Z,73.58
2022-07-28T07:21:18.498Z,73.48
2022-07-28T07:22:18.518Z,73.28
2022-07-28T07:23:18.525Z,73.48
2022-07-28T07:24:19.167Z,73.28
2022-07-28T07:25:18.523Z,72.55
2022-07-28T07:26:18.507Z,72.35
2022-07-28T07:27:18.510Z,71.77
2022-07-28T07:28:21.600Z,72.93
2022-07-28T07:29:18.552Z,72.64
2022-07-28T07:30:18.516Z,72.64
2022-07-28T07:31:18.704Z,72.19
2022-07-28T07:32:18.518Z,72.58
2022-07-28T07:33:18.530Z,71.51
2022-07-28T07:34:19.267Z,71.58
2022-07-28T07:35:18.534Z,71.32
2022-07-28T07:36:18.530Z,71.55
2022-07-28T07:37:18.527Z,71.16
2022-07-28T07:38:18.562Z,70.97
2022-07-28T07:39:21.416Z,70.57
2022-07-28T07:40:18.547Z,70.67
2022-07-28T07:41:19.159Z,70.97
2022-07-28T07:42:18.540Z,71
2022-07-28T07:43:18.542Z,70.87
2022-07-28T07:44:19.324Z,70.81
2022-07-28T07:45:18.548Z,69.7
2022-07-28T07:46:18.671Z,70.67
2022-07-28T07:47:18.551Z,70.83
2022-07-28T07:48:18.544Z,70.64
2022-07-28T07:49:18.757Z,70.73
2022-07-28T07:50:21.342Z,70.83
2022-07-28T07:51:18.557Z,71.03
2022-07-28T07:52:18.569Z,70.83
2022-07-28T07:53:18.557Z,71.03
2022-07-28T07:54:20.110Z,70.45
2022-07-28T07:55:18.573Z,70.73
2022-07-28T07:56:18.576Z,70.54
2022-07-28T07:57:18.573Z,70.97
2022-07-28T07:58:18.567Z,70.77
2022-07-28T07:59:18.565Z,70.87
2022-07-28T08:00:31.732Z,71.12
2022-07-28T08:01:21.585Z,71.16
2022-07-28T08:02:18.708Z,71.94
2022-07-28T08:03:24.773Z,70.57
2022-07-28T08:04:19.332Z,70.67
2022-07-28T08:05:20.552Z,70.71
2022-07-28T08:06:18.653Z,70.12
2022-07-28T08:07:20.513Z,69.77
2022-07-28T08:08:18.590Z,69.29
2022-07-28T08:09:18.592Z,69.77
2022-07-28T08:10:18.618Z,69.77
2022-07-28T08:11:18.595Z,69.09
2022-07-28T08:12:24.627Z,69.38
2022-07-28T08:13:18.616Z,68.6
2022-07-28T08:14:19.442Z,68.51
2022-07-28T08:15:18.637Z,68.38
2022-07-28T08:16:18.769Z,68.12
2022-07-28T08:17:22.183Z,68.7
2022-07-28T08:18:18.608Z,69.09
2022-07-28T08:19:23.662Z,69.58
2022-07-28T08:20:18.670Z,68.7
2022-07-28T08:21:18.614Z,69.13
2022-07-28T08:22:18.645Z,68.74
2022-07-28T08:23:26.124Z,68.74
2022-07-28T08:24:34.872Z,69.38
2022-07-28T08:25:18.659Z,68.6
2022-07-28T08:26:18.649Z,69.19
2022-07-28T08:27:18.673Z,69.09
2022-07-28T08:28:18.633Z,68.93
2022-07-28T08:29:18.629Z,67.76
2022-07-28T08:30:25.350Z,68.05
2022-07-28T08:31:18.746Z,67.21
2022-07-28T08:32:18.657Z,67.02
2022-07-28T08:33:18.664Z,67.28
2022-07-28T08:34:32.310Z,67.18
2022-07-28T08:35:36.105Z,67.41
2022-07-28T08:36:18.638Z,67.15
2022-07-28T08:37:18.667Z,66.44
2022-07-28T08:38:18.669Z,66.24
2022-07-28T08:39:18.687Z,66.44
2022-07-28T08:40:22.453Z,66.14
2022-07-28T08:41:18.666Z,65.56
2022-07-28T08:42:18.660Z,66.27
2022-07-28T08:43:18.680Z,66.66
2022-07-28T08:44:19.156Z,65.88
2022-07-28T08:45:21.812Z,65.92
2022-07-28T08:46:18.835Z,65.69
2022-07-28T08:47:19.104Z,66.53
2022-07-28T08:48:18.688Z,66.08
2022-07-28T08:49:18.881Z,65.23
2022-07-28T08:50:18.717Z,64.65
2022-07-28T08:51:18.677Z,63.97
2022-07-28T08:52:18.673Z,64.45
2022-07-28T08:53:18.688Z,64.94
2022-07-28T08:54:19.402Z,63.87
2022-07-28T08:55:22.024Z,64.94
2022-07-28T08:56:18.686Z,65.17
2022-07-28T08:57:18.709Z,64.59
2022-07-28T08:58:18.690Z,64.26
2022-07-28T08:59:18.690Z,63.97
2022-07-28T09:00:18.976Z,64.07
2022-07-28T09:01:21.936Z,63.97
2022-07-28T09:02:19.041Z,64
2022-07-28T09:03:18.854Z,64.55
2022-07-28T09:04:19.219Z,64
2022-07-28T09:05:18.734Z,64.1
2022-07-28T09:06:18.701Z,64.13
2022-07-28T09:07:18.703Z,65.5
2022-07-28T09:08:18.705Z,64.13
2022-07-28T09:09:18.712Z,63.09
2022-07-28T09:10:18.734Z,62.96
2022-07-28T09:11:18.707Z,62.6
2022-07-28T09:12:18.730Z,62.89
2022-07-28T09:13:18.711Z,62.96
2022-07-28T09:14:19.269Z,63.25
2022-07-28T09:15:18.757Z,63.02
2022-07-28T09:16:18.911Z,62.47
2022-07-28T09:17:18.728Z,62.57
2022-07-28T09:18:18.745Z,63.02
2022-07-28T09:19:18.718Z,63.61
2022-07-28T09:20:18.789Z,63.71
2022-07-28T09:21:18.736Z,64.2
2022-07-28T09:22:18.732Z,64.23
2022-07-28T09:23:46.122Z,62.41
2022-07-28T09:24:19.278Z,62.6
2022-07-28T09:25:18.766Z,62.53
2022-07-28T09:26:18.749Z,62.05
2022-07-28T09:27:18.742Z,63.02
2022-07-28T09:28:23.073Z,61.95
2022-07-28T09:29:18.745Z,62.73
2022-07-28T09:30:18.777Z,61.76
2022-07-28T09:31:19.057Z,63.05
2022-07-28T09:32:18.888Z,62.56
2022-07-28T09:33:45.220Z,62.08
2022-07-28T09:34:19.402Z,61.72
2022-07-28T09:35:18.782Z,61.66
2022-07-28T09:36:18.994Z,61.36
2022-07-28T09:37:24.918Z,62.05
2022-07-28T09:38:18.777Z,61.59
2022-07-28T09:39:18.792Z,62.53
2022-07-28T09:40:22.242Z,61.98
2022-07-28T09:41:19.045Z,61.3
2022-07-28T09:42:18.773Z,60.81
2022-07-28T09:43:18.787Z,61.62
2022-07-28T09:44:21.565Z,60.45
2022-07-28T09:45:30.554Z,61.43
2022-07-28T09:46:19.467Z,61.43
2022-07-28T09:47:19.368Z,61.43
2022-07-28T09:48:19.382Z,61.72
2022-07-28T09:49:19.119Z,60.64
2022-07-28T09:50:18.787Z,59.86
2022-07-28T09:51:18.817Z,58.98
2022-07-28T09:52:18.796Z,58.89
2022-07-28T09:53:18.851Z,59.01
2022-07-28T09:54:19.784Z,59.89
2022-07-28T09:55:21.834Z,58.33
2022-07-28T09:56:18.830Z,58.4
2022-07-28T09:57:19.385Z,59.08
2022-07-28T09:58:19.311Z,59.47
2022-07-28T09:59:20.812Z,59.83
2022-07-28T10:00:21.866Z,59.74
2022-07-28T10:01:19.463Z,61.43
2022-07-28T10:02:19.447Z,60.06
2022-07-28T10:03:18.993Z,60.81
2022-07-28T10:04:19.500Z,60.06
2022-07-28T10:05:18.841Z,60.94
2022-07-28T10:06:21.759Z,60.08
2022-07-28T10:07:18.817Z,60.18
2022-07-28T10:08:18.824Z,60.5
2022-07-28T10:09:18.883Z,59.82
2022-07-28T10:10:19.030Z,58.84
2022-07-28T10:11:18.831Z,58.16
2022-07-28T10:12:18.832Z,58.38
2022-07-28T10:13:18.839Z,58.55
2022-07-28T10:14:19.490Z,58.18
2022-07-28T10:15:18.841Z,58.48
2022-07-28T10:16:19.080Z,58.48
2022-07-28T10:17:19.068Z,57.82
2022-07-28T10:18:18.846Z,57.89
2022-07-28T10:19:19.037Z,57.31
2022-07-28T10:20:19.001Z,58.06
2022-07-28T10:21:18.848Z,58.38
2022-07-28T10:22:18.863Z,57.89
2022-07-28T10:23:18.854Z,57.6
2022-07-28T10:24:19.761Z,56.65
2022-07-28T10:25:18.868Z,57.5
2022-07-28T10:26:18.901Z,57.99
2022-07-28T10:27:18.867Z,58.12
2022-07-28T10:28:21.878Z,58.54
2022-07-28T10:29:18.986Z,57.86
2022-07-28T10:30:18.866Z,57.34
2022-07-28T10:31:19.080Z,57.43
2022-07-28T10:32:18.929Z,57.24
2022-07-28T10:33:18.881Z,57.57
2022-07-28T10:34:19.193Z,58.06
2022-07-28T10:35:18.889Z,57.7
2022-07-28T10:36:18.931Z,57.67
2022-07-28T10:37:18.982Z,57.97
2022-07-28T10:38:18.925Z,57.97
2022-07-28T10:39:21.924Z,58.33
2022-07-28T10:40:18.900Z,58.23
2022-07-28T10:41:18.902Z,57.87
2022-07-28T10:42:18.885Z,58.81
2022-07-28T10:43:19.102Z,58.81
2022-07-28T10:44:19.621Z,58.06
2022-07-28T10:45:18.919Z,58.16
2022-07-28T10:46:19.362Z,58.18
2022-07-28T10:47:22.150Z,58.18
2022-07-28T10:48:18.904Z,57.84
2022-07-28T10:49:20.224Z,58.75
2022-07-28T10:50:21.811Z,58.18
2022-07-28T10:51:18.941Z,57.89
2022-07-28T10:52:50.348Z,57.89
2022-07-28T10:53:18.929Z,57.6
2022-07-28T10:54:27.127Z,58.09
2022-07-28T10:55:22.723Z,57.7
2022-07-28T10:56:21.002Z,57.31
2022-07-28T10:57:21.052Z,57.38
2022-07-28T10:58:19.008Z,57.87
2022-07-28T10:59:20.847Z,58.26
2022-07-28T11:00:29.680Z,58.06
2022-07-28T11:01:49.940Z,57.89
2022-07-28T11:02:26.777Z,57.7
2022-07-28T11:03:19.254Z,58.09
2022-07-28T11:04:19.439Z,57.67
2022-07-28T11:05:18.954Z,57.97
2022-07-28T11:06:18.963Z,58.38
2022-07-28T11:07:18.993Z,56.99
2022-07-28T11:08:18.960Z,57.18
2022-07-28T11:09:19.081Z,57.4
2022-07-28T11:10:18.944Z,57.4
2022-07-28T11:11:18.987Z,57.31
2022-07-28T11:12:21.953Z,57.14
2022-07-28T11:13:18.949Z,57.73
2022-07-28T11:14:19.780Z,58.09
2022-07-28T11:15:22.032Z,57.89
2022-07-28T11:16:19.312Z,57.4
2022-07-28T11:17:33.275Z,57.38
2022-07-28T11:18:18.969Z,56.99
2022-07-28T11:20:01.065Z,57.57
2022-07-28T11:20:36.832Z,57.77
2022-07-28T11:21:48.696Z,57.28
2022-07-28T11:22:37.420Z,57.28
2022-07-28T11:23:36.798Z,57.99
2022-07-28T11:24:36.863Z,59.56
2022-07-28T11:25:37.891Z,57.92
2022-07-28T11:26:36.849Z,58.31
2022-07-28T11:27:36.866Z,58.28
2022-07-28T11:28:36.803Z,58.61
2022-07-28T11:29:37.871Z,59.29
2022-07-28T11:30:36.905Z,58.93
2022-07-28T11:31:36.808Z,58.15
2022-07-28T11:32:46.400Z,58.15
2022-07-28T11:33:36.817Z,56.97
2022-07-28T11:34:36.812Z,57
2022-07-28T11:35:36.815Z,57.86
2022-07-28T11:36:36.816Z,57.56
2022-07-28T11:37:36.817Z,58.15
2022-07-28T11:38:36.879Z,57.92
2022-07-28T11:39:45.925Z,57.66
2022-07-28T11:40:39.923Z,57.36
2022-07-28T11:41:36.879Z,57.86
2022-07-28T11:42:36.833Z,56.9
2022-07-28T11:43:39.456Z,57.43
2022-07-28T11:44:37.136Z,57.76
2022-07-28T11:45:45.803Z,57
2022-07-28T11:46:39.658Z,57.49
2022-07-28T11:47:36.845Z,56.54
2022-07-28T11:48:36.983Z,55.92
2022-07-28T11:49:37.009Z,57
2022-07-28T11:50:36.850Z,55.63
2022-07-28T11:51:53.565Z,56.9
2022-07-28T11:52:36.845Z,56.71
2022-07-28T11:53:36.879Z,57.59
2022-07-28T11:54:36.865Z,56.71
2022-07-28T11:56:04.582Z,57.39
2022-07-28T11:56:36.862Z,56.77
2022-07-28T11:57:36.861Z,56.87
2022-07-28T11:58:36.919Z,56.97
2022-07-28T11:59:39.620Z,56.95
2022-07-28T12:00:36.886Z,56.48
2022-07-28T12:01:40.765Z,56.97
2022-07-28T12:02:40.259Z,56.65
2022-07-28T12:03:54.920Z,56.68
2022-07-28T12:04:36.966Z,57.36
2022-07-28T12:05:44.256Z,57.24
2022-07-28T12:06:37.884Z,56.58
2022-07-28T12:07:37.008Z,56.58
2022-07-28T12:08:36.925Z,56.87
2022-07-28T12:09:44.334Z,57.76
2022-07-28T12:10:56.874Z,57.68
2022-07-28T12:11:36.883Z,57.78
2022-07-28T12:12:36.891Z,57.39
2022-07-28T12:13:36.928Z,57.59
2022-07-28T12:14:41.426Z,57.32
2022-07-28T12:15:36.892Z,56.27
2022-07-28T12:16:37.071Z,55.39
2022-07-28T12:17:37.502Z,55.26
2022-07-28T12:18:38.996Z,56.37
2022-07-28T12:19:37.880Z,55.98
2022-07-28T12:20:37.283Z,55.66
2022-07-28T12:21:37.046Z,55.85
2022-07-28T12:22:37.613Z,55.56
2022-07-28T12:23:49.416Z,56.61
2022-07-28T12:24:48.599Z,56.81
2022-07-28T12:25:37.583Z,57
2022-07-28T12:26:43.429Z,56.58
2022-07-28T12:27:39.961Z,56.36
2022-07-28T12:28:37.166Z,56.06
2022-07-28T12:29:38.692Z,56.65
2022-07-28T12:30:37.353Z,57.73
2022-07-28T12:31:37.423Z,58.22
2022-07-28T12:32:37.326Z,57.7
2022-07-28T12:33:37.244Z,57.04
2022-07-28T12:34:37.388Z,57.31
2022-07-28T12:35:37.026Z,57.24
2022-07-28T12:36:37.303Z,58.48
2022-07-28T12:37:37.220Z,58.38
2022-07-28T12:38:37.324Z,59.07
2022-07-28T12:39:37.394Z,58.09
2022-07-28T12:40:38.322Z,58.18
2022-07-28T12:41:37.677Z,58.38
2022-07-28T12:42:37.047Z,57.99
2022-07-28T12:43:37.181Z,58.09
2022-07-28T12:44:37.194Z,57.6
2022-07-28T12:45:37.219Z,58.87
2022-07-28T12:46:38.228Z,58.48
2022-07-28T12:47:37.219Z,57.99
2022-07-28T12:48:37.334Z,57.21
2022-07-28T12:49:37.284Z,57.28
2022-07-28T12:50:37.306Z,58.84
2022-07-28T12:51:39.979Z,58.65
2022-07-28T12:52:37.125Z,58.65
2022-07-28T12:53:37.135Z,58.16
2022-07-28T12:54:37.196Z,58.06
2022-07-28T12:55:37.035Z,57.57